Time;durP1;ratioP1;P1;durP2;ratioP2;P2;SDS_P1;SDS_P2;PMS_P1;PMS_P2;Temp;Humidity;BMP_temperature;BMP_pressure;BME280_temperature;BME280_humidity;BME280_pressure;Samples;Min_cycle;Max_cycle;Signal;HPM_P1;HPM_P2
2023/01/06 00:01:16;;;;;;;0.97;0.97;;;17.90;69.80;;;;;;5091651;27;43448;-71
2023/01/06 00:03:48;;;;;;;0.80;0.80;;;17.90;70.00;;;;;;5088648;27;43706;-70
2023/01/06 00:06:15;;;;;;;0.80;0.80;;;17.90;70.10;;;;;;5071814;27;44077;-71
2023/01/06 00:08:43;;;;;;;0.83;0.83;;;17.90;70.00;;;;;;5091081;27;43749;-71
2023/01/06 00:11:13;;;;;;;0.80;0.80;;;17.80;69.90;;;;;;5088004;27;43521;-70
2023/01/06 00:13:41;;;;;;;0.83;0.83;;;17.80;70.00;;;;;;5074464;27;44087;-73
2023/01/06 00:16:11;;;;;;;0.83;0.83;;;17.80;70.00;;;;;;5067286;28;43587;-71
2023/01/06 00:18:39;;;;;;;1.00;1.00;;;17.80;70.30;;;;;;5083958;27;43855;-72
2023/01/06 00:21:07;;;;;;;0.80;0.80;;;17.80;70.30;;;;;;5087465;27;43506;-74
2023/01/06 00:23:35;;;;;;;0.90;0.90;;;17.90;69.90;;;;;;5066065;28;43591;-72
2023/01/06 00:26:04;;;;;;;0.80;0.80;;;18.00;69.60;;;;;;5081872;27;43564;-71
2023/01/06 00:28:34;;;;;;;0.80;0.80;;;18.00;69.50;;;;;;5080362;27;44001;-73
2023/01/06 00:31:05;;;;;;;0.80;0.80;;;18.00;69.70;;;;;;5086957;27;44001;-70
2023/01/06 00:33:34;;;;;;;1.00;1.00;;;17.90;69.80;;;;;;5069990;27;43434;-73
2023/01/06 00:36:02;;;;;;;0.90;0.90;;;17.90;69.70;;;;;;5072115;27;43565;-70
2023/01/06 00:38:30;;;;;;;0.70;0.70;;;17.90;69.70;;;;;;5078324;27;46155;-71
2023/01/06 00:40:58;;;;;;;0.87;0.87;;;17.90;69.70;;;;;;5071510;27;44847;-72
2023/01/06 00:43:27;;;;;;;0.70;0.70;;;17.90;69.80;;;;;;5066508;27;43542;-72
2023/01/06 00:45:56;;;;;;;0.80;0.80;;;17.80;69.90;;;;;;5100627;27;43490;-71
2023/01/06 00:48:24;;;;;;;0.83;0.83;;;17.80;70.10;;;;;;5089502;27;43848;-72
2023/01/06 00:50:52;;;;;;;0.80;0.80;;;17.80;70.20;;;;;;5070236;27;43496;-71
2023/01/06 00:53:20;;;;;;;0.80;0.80;;;17.90;69.90;;;;;;5086803;27;43544;-72
2023/01/06 00:55:48;;;;;;;0.70;0.70;;;18.00;69.80;;;;;;5073756;27;43836;-71
2023/01/06 00:58:15;;;;;;;0.70;0.70;;;18.00;69.60;;;;;;5067931;27;45602;-70
2023/01/06 01:00:43;;;;;;;0.80;0.80;;;17.90;69.80;;;;;;5088194;27;43960;-72
2023/01/06 01:03:13;;;;;;;0.70;0.70;;;17.90;69.80;;;;;;5094998;27;43519;-70
2023/01/06 01:05:41;;;;;;;0.63;0.63;;;17.90;69.80;;;;;;5084825;27;43998;-71
2023/01/06 01:08:09;;;;;;;0.70;0.70;;;17.90;69.70;;;;;;5090882;27;43894;-71
2023/01/06 01:10:37;;;;;;;1.20;0.80;;;17.90;69.80;;;;;;5097059;27;43617;-72
2023/01/06 01:13:04;;;;;;;0.70;0.70;;;17.90;69.80;;;;;;5088972;27;43486;-71
2023/01/06 01:15:32;;;;;;;0.73;0.73;;;17.90;70.00;;;;;;5090038;27;43408;-72
2023/01/06 01:18:00;;;;;;;0.70;0.70;;;17.80;70.10;;;;;;5068827;27;46067;-72
2023/01/06 01:20:30;;;;;;;0.70;0.70;;;17.90;70.20;;;;;;5072011;27;45182;-71
2023/01/06 01:22:58;;;;;;;0.80;0.80;;;18.00;69.80;;;;;;5088364;27;43521;-70
2023/01/06 01:25:27;;;;;;;0.70;0.70;;;18.00;69.50;;;;;;5091969;27;43573;-72
2023/01/06 01:27:54;;;;;;;0.80;0.80;;;18.00;69.50;;;;;;5073786;27;45806;-70
2023/01/06 01:30:22;;;;;;;0.73;0.73;;;18.00;69.50;;;;;;5092572;27;44169;-71
2023/01/06 01:32:50;;;;;;;0.83;0.83;;;17.90;69.70;;;;;;5072724;27;43495;-71
2023/01/06 01:35:18;;;;;;;0.70;0.70;;;17.90;69.70;;;;;;5091382;27;43588;-72
2023/01/06 01:37:48;;;;;;;0.60;0.60;;;17.90;69.70;;;;;;5068831;27;45863;-70
2023/01/06 01:40:16;;;;;;;0.60;0.60;;;17.90;69.70;;;;;;5086790;27;45255;-70
2023/01/06 01:42:44;;;;;;;0.60;0.60;;;17.90;69.80;;;;;;5089040;27;43751;-71
2023/01/06 01:45:20;;;;;;;0.80;0.80;;;17.90;69.90;;;;;;5075023;27;43622;-72
2023/01/06 01:47:49;;;;;;;0.70;0.70;;;17.80;70.00;;;;;;5068325;27;45817;-71
2023/01/06 01:50:27;;;;;;;0.60;0.60;;;17.80;70.10;;;;;;5070152;27;44932;-72
2023/01/06 01:53:07;;;;;;;0.70;0.70;;;17.90;69.80;;;;;;5085725;27;43973;-71
2023/01/06 01:55:35;;;;;;;0.70;0.70;;;18.00;69.70;;;;;;5094820;27;43553;-74
2023/01/06 01:58:06;;;;;;;0.80;0.80;;;18.00;69.60;;;;;;5083537;27;43855;-70
2023/01/06 02:00:34;;;;;;;0.60;0.60;;;17.90;69.60;;;;;;5088290;27;44940;-71
2023/01/06 02:03:02;;;;;;;0.60;0.60;;;17.90;69.90;;;;;;5088912;27;43531;-71
2023/01/06 02:05:30;;;;;;;0.57;0.57;;;17.90;69.80;;;;;;5077320;27;43967;-71
2023/01/06 02:08:01;;;;;;;0.70;0.70;;;17.90;69.70;;;;;;5063026;28;46324;-71
2023/01/06 02:10:29;;;;;;;0.60;0.60;;;17.90;69.70;;;;;;5087148;27;43461;-73
2023/01/06 02:12:58;;;;;;;0.50;0.50;;;17.90;69.80;;;;;;5082425;27;44158;-72
2023/01/06 02:15:27;;;;;;;0.70;0.70;;;17.80;69.90;;;;;;5068622;27;43534;-72
2023/01/06 02:18:18;;;;;;;0.70;0.70;;;17.80;70.20;;;;;;5069032;27;45875;-72
2023/01/06 02:20:54;;;;;;;0.70;0.70;;;17.90;70.20;;;;;;5086775;27;43486;-71
2023/01/06 02:23:48;;;;;;;0.70;0.70;;;18.00;69.80;;;;;;5071234;28;43571;-72
2023/01/06 02:27:05;;;;;;;0.70;0.70;;;18.10;69.40;;;;;;5071835;27;43499;-71
2023/01/06 02:29:50;;;;;;;0.70;0.70;;;18.10;69.30;;;;;;5000731;28;43804;-72
2023/01/06 02:32:27;;;;;;;0.70;0.70;;;18.00;69.40;;;;;;5076538;27;43451;-71
2023/01/06 02:35:01;;;;;;;0.73;0.73;;;18.00;69.60;;;;;;5073413;28;43480;-71
2023/01/06 02:37:37;;;;;;;0.50;0.50;;;18.00;69.50;;;;;;5075467;27;43603;-72
2023/01/06 02:40:14;;;;;;;0.60;0.60;;;18.00;69.50;;;;;;5064916;27;43821;-73
2023/01/06 02:42:46;;;;;;;0.60;0.60;;;17.90;69.60;;;;;;5069388;27;45024;-72
2023/01/06 02:45:19;;;;;;;0.63;0.63;;;17.90;69.70;;;;;;5085836;27;43388;-73
2023/01/06 02:47:54;;;;;;;0.60;0.60;;;17.80;70.00;;;;;;5067279;27;43475;-71
2023/01/06 02:50:24;;;;;;;0.60;0.60;;;17.80;69.90;;;;;;5068493;27;44031;-71
2023/01/06 02:52:55;;;;;;;0.70;0.70;;;17.90;70.00;;;;;;5072712;27;45142;-74
2023/01/06 02:55:26;;;;;;;0.60;0.60;;;17.90;70.00;;;;;;5065596;28;43899;-71
2023/01/06 02:57:57;;;;;;;0.60;0.60;;;17.80;70.00;;;;;;5068610;28;44055;-71
2023/01/06 03:00:32;;;;;;;0.70;0.70;;;17.80;70.00;;;;;;5076528;27;43963;-72
2023/01/06 03:03:03;;;;;;;0.60;0.60;;;17.80;70.30;;;;;;5067857;28;44708;-70
2023/01/06 03:05:33;;;;;;;0.40;0.40;;;17.90;70.30;;;;;;5072275;27;45194;-72
2023/01/06 03:08:02;;;;;;;0.60;0.60;;;18.00;69.80;;;;;;5074288;27;43546;-72
2023/01/06 03:10:30;;;;;;;0.50;0.50;;;18.00;69.50;;;;;;5089646;27;43722;-73
2023/01/06 03:13:01;;;;;;;0.60;0.60;;;18.00;69.40;;;;;;5063278;27;44644;-72
2023/01/06 03:15:30;;;;;;;0.60;0.60;;;18.00;69.50;;;;;;5071770;27;43986;-72
2023/01/06 03:17:58;;;;;;;0.53;0.53;;;18.00;69.70;;;;;;5076486;27;43533;-71
2023/01/06 03:20:27;;;;;;;0.60;0.60;;;17.90;69.70;;;;;;5081450;27;44658;-72
2023/01/06 03:22:57;;;;;;;0.60;0.60;;;18.00;69.70;;;;;;5098114;27;43610;-72
2023/01/06 03:25:26;;;;;;;0.60;0.60;;;17.90;69.60;;;;;;5081267;27;43508;-72
2023/01/06 03:27:56;;;;;;;0.60;0.60;;;17.90;69.70;;;;;;5075314;27;43532;-71
2023/01/06 03:30:24;;;;;;;0.60;0.60;;;17.90;69.90;;;;;;5081949;27;45839;-71
2023/01/06 03:32:55;;;;;;;0.60;0.60;;;17.80;70.10;;;;;;5073274;27;43693;-70
2023/01/06 03:35:31;;;;;;;0.70;0.70;;;17.90;70.10;;;;;;5082878;27;43462;-70
2023/01/06 03:38:02;;;;;;;0.60;0.60;;;18.00;69.80;;;;;;5098616;27;43438;-71
2023/01/06 03:40:33;;;;;;;0.57;0.57;;;18.00;69.70;;;;;;5079911;27;45942;-72
2023/01/06 03:43:14;;;;;;;0.60;0.60;;;18.00;69.60;;;;;;5083496;27;43963;-72
2023/01/06 03:45:51;;;;;;;0.50;0.50;;;18.00;69.70;;;;;;5079035;27;43340;-71
2023/01/06 03:48:29;;;;;;;0.50;0.50;;;17.90;69.90;;;;;;5072258;27;44021;-72
2023/01/06 03:51:01;;;;;;;0.50;0.50;;;17.90;69.80;;;;;;5078264;27;45960;-73
2023/01/06 03:53:33;;;;;;;0.50;0.50;;;17.90;69.80;;;;;;5102700;27;44002;-69
2023/01/06 03:56:09;;;;;;;0.50;0.50;;;17.90;69.90;;;;;;5076159;27;43525;-71
2023/01/06 03:58:39;;;;;;;0.53;0.53;;;17.90;70.00;;;;;;5069933;27;44108;-71
2023/01/06 04:01:09;;;;;;;0.50;0.50;;;17.80;70.00;;;;;;5083738;27;44279;-72
2023/01/06 04:03:37;;;;;;;0.60;0.60;;;17.80;70.30;;;;;;5078827;27;43537;-71
2023/01/06 04:06:07;;;;;;;0.40;0.40;;;17.80;70.10;;;;;;5090184;27;43470;-71
2023/01/06 04:08:35;;;;;;;0.50;0.50;;;17.80;70.00;;;;;;5093124;27;43449;-74
2023/01/06 04:11:04;;;;;;;0.50;0.50;;;17.80;70.00;;;;;;5093981;27;45610;-71
2023/01/06 04:13:32;;;;;;;0.40;0.40;;;17.80;70.10;;;;;;5070849;27;43574;-72
2023/01/06 04:16:00;;;;;;;0.50;0.50;;;17.80;70.30;;;;;;5072797;27;44369;-70
2023/01/06 04:18:28;;;;;;;0.50;0.50;;;17.80;70.50;;;;;;5090028;27;43447;-72
2023/01/06 04:20:57;;;;;;;0.50;0.50;;;17.90;70.30;;;;;;5070600;28;43945;-70
2023/01/06 04:23:31;;;;;;;0.50;0.50;;;18.00;69.90;;;;;;5075582;27;43467;-72
2023/01/06 04:26:02;;;;;;;0.50;0.50;;;18.10;69.50;;;;;;5075644;28;43455;-71
2023/01/06 04:28:38;;;;;;;0.40;0.40;;;18.10;69.20;;;;;;5073384;27;43672;-73
2023/01/06 04:31:07;;;;;;;0.40;0.40;;;18.10;69.20;;;;;;5092586;27;43607;-70
2023/01/06 04:33:36;;;;;;;0.60;0.60;;;18.10;69.60;;;;;;5070730;27;43416;-72
2023/01/06 04:36:06;;;;;;;0.50;0.50;;;18.10;69.40;;;;;;5069584;28;43538;-70
2023/01/06 04:38:36;;;;;;;0.47;0.47;;;18.00;69.40;;;;;;5070299;28;43914;-71
2023/01/06 04:41:04;;;;;;;0.50;0.50;;;18.00;69.50;;;;;;5063934;28;45699;-71
2023/01/06 04:43:32;;;;;;;0.50;0.50;;;18.00;69.70;;;;;;5065003;28;44788;-72
2023/01/06 04:46:00;;;;;;;0.57;0.57;;;17.90;69.70;;;;;;5071502;28;43404;-72
2023/01/06 04:48:28;;;;;;;0.60;0.60;;;17.90;70.00;;;;;;5068721;28;43494;-72
2023/01/06 04:51:02;;;;;;;0.53;0.50;;;17.90;69.90;;;;;;5072156;28;44014;-72
2023/01/06 04:53:32;;;;;;;0.30;0.30;;;17.90;69.90;;;;;;5070293;28;43407;-71
2023/01/06 04:56:03;;;;;;;0.40;0.40;;;17.90;70.00;;;;;;5075308;28;43429;-71
2023/01/06 04:58:31;;;;;;;0.50;0.50;;;17.90;70.00;;;;;;5074391;28;43537;-72
2023/01/06 05:01:00;;;;;;;0.50;0.50;;;17.80;70.00;;;;;;5072452;28;43825;-72
2023/01/06 05:03:28;;;;;;;0.63;0.63;;;17.80;70.30;;;;;;5076027;28;43625;-71
2023/01/06 05:06:00;;;;;;;0.50;0.50;;;17.90;70.10;;;;;;5070124;28;44452;-70
2023/01/06 05:08:27;;;;;;;0.70;0.70;;;18.00;69.70;;;;;;5071251;28;43537;-72
2023/01/06 05:10:59;;;;;;;0.80;0.80;;;18.10;69.50;;;;;;5071121;28;44084;-74
2023/01/06 05:13:28;;;;;;;0.70;0.70;;;18.00;69.40;;;;;;5070298;28;43556;-71
2023/01/06 05:15:56;;;;;;;0.67;0.67;;;18.00;69.50;;;;;;5069721;28;43773;-73
2023/01/06 05:18:24;;;;;;;0.90;0.90;;;17.90;69.70;;;;;;5057421;28;43805;-71
2023/01/06 05:20:52;;;;;;;1.10;1.10;;;18.00;69.70;;;;;;5064674;28;44197;-71
2023/01/06 05:23:20;;;;;;;1.00;1.00;;;18.00;69.60;;;;;;5065638;28;44050;-71
2023/01/06 05:25:50;;;;;;;1.37;1.33;;;18.00;69.70;;;;;;5069196;28;43481;-70
2023/01/06 05:28:18;;;;;;;1.23;1.23;;;17.90;69.70;;;;;;5071445;28;43478;-71
2023/01/06 05:30:47;;;;;;;1.47;1.47;;;17.90;69.90;;;;;;5068801;28;43735;-71
2023/01/06 05:33:15;;;;;;;2.53;1.67;;;17.90;70.10;;;;;;5072511;28;44520;-73
2023/01/06 05:35:43;;;;;;;1.77;1.60;;;17.90;69.90;;;;;;5072343;27;44076;-72
2023/01/06 05:38:11;;;;;;;2.73;1.97;;;17.90;69.80;;;;;;5087558;27;43464;-71
2023/01/06 05:40:39;;;;;;;2.33;1.93;;;17.90;69.90;;;;;;5090685;27;43919;-71
2023/01/06 05:43:08;;;;;;;2.53;2.17;;;17.90;70.00;;;;;;5086370;27;43455;-71
2023/01/06 05:45:36;;;;;;;3.93;2.60;;;17.80;70.00;;;;;;5091381;27;43381;-73
2023/01/06 05:48:06;;;;;;;5.10;2.77;;;17.80;70.30;;;;;;5069898;28;44062;-72
2023/01/06 05:50:34;;;;;;;4.80;2.70;;;17.90;70.20;;;;;;5093259;27;44019;-70
2023/01/06 05:53:02;;;;;;;5.50;3.10;;;18.00;69.80;;;;;;5089402;27;43469;-71
2023/01/06 05:55:30;;;;;;;5.20;3.13;;;18.10;69.30;;;;;;5073721;28;43607;-73
2023/01/06 05:57:58;;;;;;;6.70;3.37;;;18.20;69.10;;;;;;5092914;27;43482;-72
2023/01/06 06:00:26;;;;;;;3.87;3.10;;;18.10;69.00;;;;;;5091829;27;43607;-71
2023/01/06 06:02:54;;;;;;;5.03;2.90;;;18.10;69.40;;;;;;5075289;28;44767;-71
2023/01/06 06:05:24;;;;;;;6.80;3.37;;;18.10;69.40;;;;;;5091770;27;43504;-70
2023/01/06 06:07:55;;;;;;;5.17;3.10;;;18.10;69.30;;;;;;5088720;27;43533;-71
2023/01/06 06:10:23;;;;;;;4.20;3.23;;;18.10;69.40;;;;;;5086766;27;43959;-72
2023/01/06 06:12:51;;;;;;;6.20;3.63;;;18.00;69.50;;;;;;5087882;27;43975;-72
2023/01/06 06:15:19;;;;;;;6.00;3.40;;;17.90;69.60;;;;;;5084349;27;43469;-72
2023/01/06 06:17:47;;;;;;;8.93;3.77;;;17.90;70.00;;;;;;5065890;28;43704;-71
2023/01/06 06:20:15;;;;;;;6.33;3.50;;;17.90;69.80;;;;;;5089697;27;45119;-71
2023/01/06 06:22:44;;;;;;;4.57;3.77;;;17.90;69.70;;;;;;5084951;27;43446;-70
2023/01/06 06:25:12;;;;;;;4.47;3.40;;;17.90;69.80;;;;;;5089884;27;43463;-72
2023/01/06 06:27:40;;;;;;;7.13;3.53;;;17.90;69.90;;;;;;5088423;27;43502;-71
2023/01/06 06:30:09;;;;;;;7.50;4.07;;;17.90;70.00;;;;;;5093929;27;43960;-71
2023/01/06 06:32:36;;;;;;;7.60;3.93;;;17.80;70.30;;;;;;5084898;27;44289;-71
2023/01/06 06:35:07;;;;;;;8.23;4.20;;;17.90;70.10;;;;;;5088663;27;43500;-72
2023/01/06 06:37:35;;;;;;;6.90;4.03;;;18.00;69.80;;;;;;5068503;28;43607;-71
2023/01/06 06:40:05;;;;;;;6.50;3.93;;;18.00;69.50;;;;;;5096143;27;43772;-70
2023/01/06 06:42:33;;;;;;;4.27;3.53;;;18.00;69.50;;;;;;5061961;27;44714;-71
2023/01/06 06:45:01;;;;;;;9.30;4.03;;;18.00;69.60;;;;;;5085149;27;43408;-73
2023/01/06 06:47:29;;;;;;;6.30;3.90;;;17.90;69.80;;;;;;5093334;27;43490;-73
2023/01/06 06:49:57;;;;;;;6.13;3.93;;;18.00;69.80;;;;;;5070027;27;45525;-71
2023/01/06 06:52:25;;;;;;;6.40;3.90;;;18.00;69.70;;;;;;5088103;27;43449;-71
2023/01/06 06:54:53;;;;;;;6.97;3.73;;;17.90;69.60;;;;;;5087387;27;43528;-71
2023/01/06 06:57:22;;;;;;;8.33;4.37;;;17.90;69.80;;;;;;5085316;27;44004;-72
2023/01/06 06:59:50;;;;;;;6.60;4.20;;;17.90;70.00;;;;;;5085641;27;43780;-73
2023/01/06 07:02:18;;;;;;;4.67;3.60;;;17.90;70.30;;;;;;5096538;27;43509;-71
2023/01/06 07:04:46;;;;;;;4.67;3.77;;;17.90;70.00;;;;;;5091254;27;44466;-72
2023/01/06 07:07:14;;;;;;;7.43;4.03;;;18.00;69.70;;;;;;5102922;27;43950;-72
2023/01/06 07:09:42;;;;;;;5.47;3.80;;;18.00;69.50;;;;;;5103909;27;43950;-71
2023/01/06 07:12:10;;;;;;;6.33;3.87;;;18.00;69.50;;;;;;5087451;27;44150;-73
2023/01/06 07:14:39;;;;;;;6.73;4.40;;;18.00;69.60;;;;;;5070415;27;43463;-71
2023/01/06 07:17:07;;;;;;;4.93;3.73;;;18.00;69.80;;;;;;5082943;27;43890;-70
2023/01/06 07:19:35;;;;;;;5.17;4.17;;;18.00;69.70;;;;;;5084306;27;43904;-73
2023/01/06 07:22:03;;;;;;;4.70;3.60;;;18.00;69.60;;;;;;5097835;27;43949;-71
2023/01/06 07:24:31;;;;;;;3.93;3.53;;;18.00;69.70;;;;;;5089079;27;43789;-71
2023/01/06 07:26:59;;;;;;;5.73;3.73;;;17.90;69.60;;;;;;5063589;27;44276;-70
2023/01/06 07:29:27;;;;;;;4.47;3.73;;;17.90;69.70;;;;;;5064475;27;45885;-71
2023/01/06 07:31:56;;;;;;;5.63;3.80;;;17.90;70.10;;;;;;5091463;27;43835;-71
2023/01/06 07:34:24;;;;;;;5.03;3.80;;;17.90;69.90;;;;;;5076590;27;43986;-70
2023/01/06 07:36:52;;;;;;;3.43;3.00;;;17.90;69.70;;;;;;5097081;27;43503;-73
2023/01/06 07:39:20;;;;;;;3.97;3.53;;;17.90;69.80;;;;;;5073527;27;45682;-72
2023/01/06 07:41:48;;;;;;;4.70;3.53;;;17.90;69.80;;;;;;5097538;27;43442;-71
2023/01/06 07:44:16;;;;;;;3.73;3.33;;;17.90;69.90;;;;;;5077370;27;43489;-71
2023/01/06 07:46:44;;;;;;;3.90;3.47;;;17.80;70.20;;;;;;5095059;27;43601;-73
2023/01/06 07:49:14;;;;;;;4.37;3.20;;;17.90;70.00;;;;;;5088501;27;43917;-72
2023/01/06 07:51:42;;;;;;;3.90;3.50;;;18.00;69.60;;;;;;5084699;27;43499;-70
2023/01/06 07:54:10;;;;;;;4.70;3.43;;;18.10;69.30;;;;;;5087320;27;43398;-72
2023/01/06 07:56:38;;;;;;;3.40;3.10;;;18.10;69.10;;;;;;5083120;27;43494;-73
2023/01/06 07:59:06;;;;;;;3.27;2.97;;;18.10;69.20;;;;;;5084434;27;44135;-70
2023/01/06 08:01:34;;;;;;;4.27;3.40;;;18.10;69.50;;;;;;5085086;27;43444;-71
2023/01/06 08:04:02;;;;;;;2.90;2.70;;;18.10;69.50;;;;;;5088496;27;43457;-71
2023/01/06 08:06:31;;;;;;;3.13;2.83;;;18.10;69.40;;;;;;5104598;27;43410;-70
2023/01/06 08:09:00;;;;;;;3.00;2.80;;;18.00;69.40;;;;;;5097850;27;43841;-70
2023/01/06 08:11:28;;;;;;;2.60;2.40;;;18.00;69.50;;;;;;5091569;27;43526;-71
2023/01/06 08:13:56;;;;;;;4.63;3.23;;;18.00;69.70;;;;;;5081674;27;43427;-71
2023/01/06 08:16:24;;;;;;;3.00;2.80;;;17.90;69.90;;;;;;5083355;27;43511;-72
2023/01/06 08:18:52;;;;;;;3.43;3.13;;;17.90;69.80;;;;;;5088045;27;43999;-71
2023/01/06 08:21:20;;;;;;;3.00;2.70;;;17.90;69.70;;;;;;5085321;27;43953;-71
2023/01/06 08:23:49;;;;;;;2.40;2.30;;;17.90;69.70;;;;;;5088191;27;45016;-70
2023/01/06 08:26:17;;;;;;;2.67;2.47;;;17.90;69.80;;;;;;5091876;27;43434;-71
2023/01/06 08:28:45;;;;;;;4.30;3.03;;;17.90;69.90;;;;;;5078267;27;44040;-72
2023/01/06 08:31:14;;;;;;;2.77;2.57;;;17.90;70.10;;;;;;5093065;27;44115;-70
2023/01/06 08:33:42;;;;;;;3.20;2.90;;;17.90;70.00;;;;;;5065978;27;43650;-71
2023/01/06 08:36:13;;;;;;;2.90;2.70;;;17.90;70.00;;;;;;5085099;27;43990;-71
2023/01/06 08:38:41;;;;;;;2.30;2.20;;;17.90;69.90;;;;;;5068619;27;46185;-71
2023/01/06 08:41:11;;;;;;;2.63;2.50;;;17.90;70.00;;;;;;5064888;27;44632;-71
2023/01/06 08:43:39;;;;;;;2.73;2.53;;;17.90;70.00;;;;;;5065864;27;43479;-71
2023/01/06 08:46:08;;;;;;;3.00;2.80;;;17.80;70.30;;;;;;5085851;27;43464;-71
2023/01/06 08:48:36;;;;;;;2.90;2.70;;;17.90;70.20;;;;;;5085458;27;43999;-71
2023/01/06 08:51:04;;;;;;;3.00;2.80;;;18.00;69.80;;;;;;5085672;27;43566;-74
2023/01/06 08:53:33;;;;;;;2.57;2.47;;;18.10;69.40;;;;;;5099994;27;43415;-72
2023/01/06 08:56:00;;;;;;;2.77;2.57;;;18.20;69.10;;;;;;5079986;27;43971;-71
2023/01/06 08:58:30;;;;;;;2.33;2.23;;;18.20;68.90;;;;;;5095375;27;43616;-72
2023/01/06 09:00:58;;;;;;;2.67;2.50;;;18.20;69.20;;;;;;5102740;27;43431;-72
2023/01/06 09:03:26;;;;;;;2.27;2.13;;;18.20;70.00;;;;;;5103207;27;44238;-73
2023/01/06 09:05:54;;;;;;;2.37;2.27;;;18.10;69.10;;;;;;5102361;27;43505;-72
2023/01/06 09:08:22;;;;;;;2.17;2.07;;;18.10;69.20;;;;;;5101294;27;43947;-71
2023/01/06 09:10:50;;;;;;;2.50;2.30;;;18.10;69.30;;;;;;5097140;27;43502;-72
2023/01/06 09:13:18;;;;;;;2.20;2.10;;;18.00;69.50;;;;;;5099554;27;43843;-71
2023/01/06 09:15:47;;;;;;;2.50;2.40;;;18.00;69.70;;;;;;5083555;27;43533;-72
2023/01/06 09:18:16;;;;;;;2.30;2.20;;;18.00;69.80;;;;;;5080378;27;45970;-71
2023/01/06 09:20:44;;;;;;;2.40;2.20;;;18.00;69.80;;;;;;5097727;27;43437;-70
2023/01/06 09:23:11;;;;;;;2.13;2.03;;;18.00;69.80;;;;;;5100838;27;43471;-70
2023/01/06 09:25:39;;;;;;;2.17;2.00;;;17.90;69.70;;;;;;5070736;27;43589;-73
2023/01/06 09:28:09;;;;;;;2.30;2.20;;;17.90;70.50;;;;;;5071166;27;45888;-70
2023/01/06 09:30:38;;;;;;;2.27;2.17;;;17.90;69.90;;;;;;5084919;27;43496;-72
2023/01/06 09:33:07;;;;;;;2.17;2.07;;;17.90;70.10;;;;;;5071750;27;43440;-73
2023/01/06 09:35:35;;;;;;;2.10;2.00;;;17.90;70.00;;;;;;5075823;27;43506;-71
2023/01/06 09:38:03;;;;;;;2.13;2.03;;;17.90;69.90;;;;;;5099054;27;43969;-70
2023/01/06 09:40:34;;;;;;;2.07;1.97;;;17.90;70.00;;;;;;5085333;27;44701;-70
2023/01/06 09:43:06;;;;;;;2.13;2.03;;;17.90;70.00;;;;;;5090555;27;43948;-71
2023/01/06 09:45:35;;;;;;;1.90;1.80;;;17.80;70.00;;;;;;5100046;27;43502;-70
2023/01/06 09:48:04;;;;;;;1.73;1.63;;;17.90;70.30;;;;;;5096491;27;43673;-70
2023/01/06 09:50:34;;;;;;;2.03;1.93;;;18.00;70.10;;;;;;5082549;27;44604;-71
2023/01/06 09:53:03;;;;;;;2.20;2.00;;;18.10;70.40;;;;;;5096508;27;43878;-71
2023/01/06 09:55:33;;;;;;;1.90;1.90;;;18.20;69.30;;;;;;5097596;27;43486;-70
2023/01/06 09:58:03;;;;;;;2.10;2.00;;;18.20;69.00;;;;;;5092524;27;43866;-71
2023/01/06 10:00:35;;;;;;;2.00;1.90;;;18.10;69.10;;;;;;5091299;27;43662;-71
2023/01/06 10:03:03;;;;;;;2.10;2.00;;;18.10;69.30;;;;;;5087754;27;43524;-71
2023/01/06 10:05:37;;;;;;;1.83;1.80;;;18.10;69.20;;;;;;5082619;27;43431;-72
2023/01/06 10:08:10;;;;;;;1.83;1.73;;;18.10;69.30;;;;;;5072161;27;45903;-71
2023/01/06 10:10:41;;;;;;;1.70;1.70;;;18.10;69.40;;;;;;5090409;27;43558;-72
2023/01/06 10:13:20;;;;;;;1.80;1.70;;;18.00;69.50;;;;;;5091422;27;43566;-72
2023/01/06 10:15:51;;;;;;;1.70;1.60;;;18.00;69.70;;;;;;5092261;27;43415;-71
2023/01/06 10:18:25;;;;;;;1.87;1.87;;;17.90;69.80;;;;;;5087517;27;43571;-72
2023/01/06 10:21:00;;;;;;;1.70;1.60;;;17.90;69.70;;;;;;5096140;27;43419;-72
2023/01/06 10:23:59;;;;;;;1.73;1.73;;;17.90;69.70;;;;;;5067046;27;43980;-72
2023/01/06 10:26:28;;;;;;;1.60;1.60;;;17.90;69.70;;;;;;5067698;27;44169;-71
2023/01/06 10:28:59;;;;;;;1.70;1.70;;;17.90;69.90;;;;;;5085946;27;43946;-72
2023/01/06 10:31:31;;;;;;;1.93;1.67;;;17.90;70.20;;;;;;5076505;28;44435;-71
2023/01/06 10:33:59;;;;;;;1.60;1.60;;;17.90;70.10;;;;;;5084162;27;43457;-72
2023/01/06 10:36:31;;;;;;;1.47;1.47;;;17.90;69.90;;;;;;5069588;28;43495;-71
2023/01/06 10:38:59;;;;;;;1.60;1.60;;;17.90;69.90;;;;;;5087796;27;43752;-72
2023/01/06 10:41:33;;;;;;;1.60;1.60;;;17.90;69.90;;;;;;5077860;27;44810;-70
2023/01/06 10:44:01;;;;;;;1.73;1.73;;;17.90;70.00;;;;;;5086905;27;43454;-73
2023/01/06 10:46:33;;;;;;;1.40;1.40;;;17.80;70.10;;;;;;5091449;27;43923;-70
2023/01/06 10:49:01;;;;;;;1.60;1.60;;;17.90;70.30;;;;;;5089648;27;43915;-70
2023/01/06 10:51:35;;;;;;;1.50;1.50;;;18.00;70.00;;;;;;5093053;27;43532;-72
2023/01/06 10:54:05;;;;;;;1.53;1.53;;;18.10;69.50;;;;;;5080628;27;43488;-71
2023/01/06 10:56:34;;;;;;;1.60;1.60;;;18.20;69.10;;;;;;5089817;27;44055;-71
2023/01/06 10:59:05;;;;;;;1.93;1.67;;;18.20;69.00;;;;;;5089063;27;43607;-71
2023/01/06 11:01:33;;;;;;;1.60;1.60;;;18.20;69.10;;;;;;5087797;27;43459;-70
2023/01/06 11:04:10;;;;;;;1.40;1.40;;;18.20;69.30;;;;;;5084934;27;43404;-72
2023/01/06 11:06:42;;;;;;;1.30;1.30;;;18.10;69.10;;;;;;5085027;27;43586;-71
2023/01/06 11:09:23;;;;;;;1.43;1.43;;;18.10;69.20;;;;;;5072074;27;44138;-72
2023/01/06 11:11:51;;;;;;;1.47;1.47;;;18.10;69.30;;;;;;5087447;27;44007;-72
2023/01/06 11:14:19;;;;;;;1.20;1.20;;;18.00;69.40;;;;;;5091855;27;43494;-72
2023/01/06 11:16:54;;;;;;;1.60;1.50;;;18.00;69.80;;;;;;5069514;28;43679;-71
2023/01/06 11:19:23;;;;;;;1.47;1.47;;;18.00;69.80;;;;;;5086873;27;43968;-73
2023/01/06 11:21:52;;;;;;;1.30;1.30;;;18.00;69.70;;;;;;5072490;27;45168;-72
2023/01/06 11:24:21;;;;;;;1.27;1.27;;;17.90;69.60;;;;;;5089007;27;43517;-71
2023/01/06 11:26:53;;;;;;;1.40;1.40;;;17.90;69.70;;;;;;5072427;28;44246;-71
2023/01/06 11:29:27;;;;;;;1.20;1.20;;;17.90;69.90;;;;;;5062309;27;46944;-70
2023/01/06 11:31:56;;;;;;;1.30;1.30;;;17.90;70.20;;;;;;5067590;27;44453;-70
2023/01/06 11:34:24;;;;;;;1.50;1.50;;;17.90;70.00;;;;;;5090218;27;43442;-71
2023/01/06 11:36:53;;;;;;;1.20;1.20;;;17.90;69.90;;;;;;5089235;27;43541;-71
2023/01/06 11:39:25;;;;;;;1.40;1.40;;;17.90;69.80;;;;;;5088120;27;43947;-71
2023/01/06 11:41:53;;;;;;;1.17;1.17;;;17.90;69.90;;;;;;5069038;27;45346;-71
2023/01/06 11:44:25;;;;;;;1.30;1.30;;;17.90;70.00;;;;;;5093418;27;43960;-73
2023/01/06 11:46:56;;;;;;;1.40;1.40;;;17.80;70.30;;;;;;5085196;27;44144;-70
2023/01/06 11:49:26;;;;;;;1.30;1.30;;;17.90;70.20;;;;;;5084211;27;43864;-71
2023/01/06 11:52:01;;;;;;;1.17;1.17;;;18.00;69.80;;;;;;5087628;27;43840;-72
2023/01/06 11:54:34;;;;;;;1.20;1.20;;;18.20;69.40;;;;;;5095640;27;43975;-72
2023/01/06 11:57:17;;;;;;;1.10;1.10;;;18.20;69.10;;;;;;5084712;27;43801;-71
2023/01/06 12:00:00;;;;;;;1.20;1.20;;;18.20;69.00;;;;;;5085663;27;45104;-70
2023/01/06 12:02:35;;;;;;;1.30;1.30;;;18.10;69.40;;;;;;5082400;27;43668;-72
2023/01/06 12:05:04;;;;;;;1.13;1.13;;;18.10;69.40;;;;;;5071502;27;44692;-70
2023/01/06 12:07:37;;;;;;;0.93;0.93;;;18.10;69.20;;;;;;5089272;27;43545;-70
2023/01/06 12:10:09;;;;;;;1.20;1.20;;;18.10;69.30;;;;;;5090409;27;43762;-71
2023/01/06 12:12:37;;;;;;;1.20;1.20;;;18.00;69.30;;;;;;5092421;27;43448;-72
2023/01/06 12:15:11;;;;;;;1.30;1.30;;;18.00;69.30;;;;;;5078698;27;43385;-72
2023/01/06 12:17:41;;;;;;;1.20;1.20;;;17.90;69.80;;;;;;5096654;27;43470;-72
2023/01/06 12:20:15;;;;;;;1.00;1.00;;;18.00;69.70;;;;;;5086075;27;43803;-71
2023/01/06 12:22:45;;;;;;;1.20;1.20;;;17.90;69.50;;;;;;5066425;28;44700;-73
2023/01/06 12:25:15;;;;;;;1.10;1.10;;;17.90;69.60;;;;;;5084009;27;43450;-70
2023/01/06 12:27:45;;;;;;;0.90;0.90;;;17.90;69.70;;;;;;5091212;27;44057;-71
2023/01/06 12:30:16;;;;;;;1.20;1.20;;;17.90;69.80;;;;;;5094520;27;44105;-71
2023/01/06 12:32:47;;;;;;;1.20;1.20;;;17.90;70.20;;;;;;5085307;27;43479;-70
2023/01/06 12:35:18;;;;;;;1.10;1.10;;;18.00;70.00;;;;;;5094063;27;43829;-72
2023/01/06 12:37:48;;;;;;;1.10;1.10;;;18.10;69.60;;;;;;5090094;27;43948;-73
2023/01/06 12:40:20;;;;;;;0.80;0.80;;;18.10;69.30;;;;;;5081124;27;43939;-72
2023/01/06 12:42:51;;;;;;;0.93;0.93;;;18.00;69.20;;;;;;5090810;27;44723;-71
2023/01/06 12:45:22;;;;;;;1.20;1.20;;;18.00;69.30;;;;;;5093291;27;44011;-71
2023/01/06 12:47:50;;;;;;;1.20;1.20;;;18.00;69.80;;;;;;5088063;27;43722;-71
2023/01/06 12:50:26;;;;;;;1.00;1.00;;;18.00;69.50;;;;;;5073950;27;46080;-71
2023/01/06 12:52:58;;;;;;;0.90;0.90;;;18.00;69.50;;;;;;5074528;28;44619;-72
2023/01/06 12:55:37;;;;;;;1.00;1.00;;;18.00;69.70;;;;;;5084311;27;43471;-72
2023/01/06 12:58:08;;;;;;;1.27;1.27;;;17.90;69.60;;;;;;5069167;27;43587;-70
2023/01/06 13:00:41;;;;;;;0.93;0.93;;;17.90;69.80;;;;;;5103215;27;43768;-70
2023/01/06 13:03:29;;;;;;;1.10;1.10;;;17.90;70.10;;;;;;5096828;27;43451;-72